Time;durP1;ratioP1;P1;durP2;ratioP2;P2;SDS_P1;SDS_P2;PMS_P1;PMS_P2;Temp;Humidity;BMP_temperature;BMP_pressure;BME280_temperature;BME280_humidity;BME280_pressure;Samples;Min_cycle;Max_cycle;Signal;HPM_P1;HPM_P2
2022/04/14 00:02:08;;;;;;;9.00;8.10;;;10.20;79.40;;;9.20;75.00;97943.41;5038092;28;20505;-80
2022/04/14 00:04:37;;;;;;;9.07;7.80;;;10.20;79.70;;;8.98;76.00;97933.88;5043987;28;20460;-79
2022/04/14 00:07:05;;;;;;;9.80;8.77;;;10.10;80.00;;;8.86;76.75;97944.41;5039937;28;20482;-78
2022/04/14 00:09:35;;;;;;;9.73;8.53;;;9.90;81.50;;;8.77;76.79;97920.41;5043678;28;20561;-77
2022/04/14 00:12:02;;;;;;;9.47;8.20;;;9.90;82.10;;;8.95;76.55;97932.41;5049547;28;20449;-79
2022/04/14 00:14:29;;;;;;;9.30;8.33;;;9.90;82.60;;;8.89;76.09;97933.25;5043485;28;20515;-76
2022/04/14 00:16:56;;;;;;;8.70;7.90;;;9.90;82.00;;;8.27;76.31;97833.75;5040304;28;20506;-78
2022/04/14 00:19:23;;;;;;;9.60;8.67;;;10.00;81.00;;;8.62;77.02;97911.69;5043752;28;20507;-79
2022/04/14 00:21:51;;;;;;;9.33;8.43;;;9.90;82.30;;;8.60;77.86;97933.41;5029539;28;20469;-78
2022/04/14 00:24:18;;;;;;;9.63;8.17;;;9.80;82.80;;;8.52;78.29;97933.63;5048164;28;20477;-75
2022/04/14 00:26:45;;;;;;;9.80;8.77;;;9.60;83.50;;;8.43;78.56;97935.66;5056289;28;20463;-87
2022/04/14 00:29:12;;;;;;;9.43;8.53;;;9.50;84.10;;;8.37;79.43;97936.44;5073952;28;20446;-77
2022/04/14 00:31:39;;;;;;;12.77;8.90;;;9.50;84.70;;;8.10;79.27;97887.91;5055699;28;20533;-84
2022/04/14 00:34:07;;;;;;;10.40;8.70;;;9.50;85.20;;;8.35;79.50;97933.13;5055448;28;20481;-79
2022/04/14 00:36:34;;;;;;;10.10;8.87;;;9.50;85.20;;;8.20;79.85;97934.13;5062347;28;20506;-83
2022/04/14 00:39:02;;;;;;;10.97;9.20;;;9.40;85.90;;;8.35;79.12;97933.13;5049591;28;20461;-79
2022/04/14 00:41:29;;;;;;;12.03;8.70;;;9.40;86.70;;;8.50;78.72;97943.78;5036202;28;20442;-77
2022/04/14 00:43:56;;;;;;;12.00;9.43;;;9.50;85.90;;;8.26;79.00;97907.41;5045973;28;20516;-78
2022/04/14 00:46:24;;;;;;;10.20;9.20;;;9.50;85.20;;;8.39;78.86;97945.16;5048965;28;20488;-76
2022/04/14 00:48:52;;;;;;;12.57;9.03;;;9.50;85.60;;;8.41;78.75;97932.31;5053901;28;20552;-77
2022/04/14 00:51:20;;;;;;;10.67;9.57;;;9.50;85.50;;;8.26;79.57;97934.34;5051063;28;20487;-76
2022/04/14 00:53:47;;;;;;;10.27;9.37;;;9.40;85.30;;;8.28;79.69;97932.28;5049643;28;20882;-78
2022/04/14 00:56:15;;;;;;;10.37;8.97;;;9.40;86.00;;;8.27;79.55;97942.22;5042278;28;20823;-79
2022/04/14 00:58:43;;;;;;;10.90;9.80;;;9.40;86.00;;;8.17;79.62;97926.47;5049285;28;20480;-78
2022/04/14 01:01:12;;;;;;;12.13;9.83;;;9.40;86.40;;;7.89;80.35;97900.47;5049712;28;20460;-79
2022/04/14 01:03:39;;;;;;;11.17;9.80;;;9.20;87.00;;;8.09;80.58;97934.69;5045908;28;20446;-83
2022/04/14 01:06:07;;;;;;;12.90;10.10;;;9.20;87.50;;;7.88;81.41;97927.56;5043721;28;20547;-78
2022/04/14 01:08:35;;;;;;;10.53;9.50;;;9.20;87.90;;;7.85;81.69;97934.19;5053368;28;20570;-81
2022/04/14 01:11:04;;;;;;;15.93;10.77;;;9.10;88.30;;;7.85;82.00;97917.22;5050482;28;20507;-77
2022/04/14 01:13:32;;;;;;;12.87;10.67;;;9.00;89.50;;;7.88;81.63;97927.56;5042383;28;20536;-78
2022/04/14 01:16:00;;;;;;;10.73;9.63;;;9.10;89.40;;;7.69;82.49;97926.47;5043778;28;20816;-80
2022/04/14 01:18:28;;;;;;;13.63;10.03;;;8.90;89.20;;;7.69;82.00;97918.41;5048750;28;20654;-78
2022/04/14 01:20:55;;;;;;;14.93;11.23;;;8.90;89.50;;;7.75;82.35;97922.97;5045104;28;20508;-75
2022/04/14 01:23:40;;;;;;;10.87;9.60;;;8.90;90.20;;;7.78;82.14;97928.78;5052953;28;20460;-76
2022/04/14 01:26:08;;;;;;;11.00;9.90;;;8.90;90.30;;;7.70;82.70;97926.25;5038956;28;20539;-75
2022/04/14 01:28:35;;;;;;;11.37;10.30;;;8.90;90.40;;;7.60;82.63;97928.50;5047723;28;20540;-77
2022/04/14 01:31:03;;;;;;;16.93;11.50;;;8.80;90.20;;;7.65;83.04;97934.09;5039420;28;20515;-75
2022/04/14 01:33:30;;;;;;;11.37;10.17;;;8.80;90.90;;;7.55;83.29;97934.47;5048491;28;20480;-79
2022/04/14 01:35:57;;;;;;;11.50;10.40;;;8.70;90.80;;;7.25;83.22;97902.44;5041320;28;20458;-76
2022/04/14 01:38:25;;;;;;;10.77;9.77;;;8.70;91.00;;;7.40;84.26;97944.50;5033363;28;20956;-77
2022/04/14 01:40:53;;;;;;;12.23;10.93;;;8.60;91.40;;;7.16;83.59;97892.84;5056432;28;20490;-77
2022/04/14 01:43:20;;;;;;;15.13;10.57;;;8.60;91.60;;;7.44;83.76;97940.38;5046593;28;20461;-79
2022/04/14 01:45:50;;;;;;;11.87;10.70;;;8.60;91.40;;;7.36;83.72;97925.25;5043269;28;20552;-78
2022/04/14 01:48:17;;;;;;;11.20;10.03;;;8.60;91.60;;;7.51;83.48;97938.59;5049653;28;21022;-78
2022/04/14 01:50:45;;;;;;;12.77;10.47;;;8.60;91.30;;;7.47;83.11;97938.13;5055977;28;20442;-79
2022/04/14 01:53:12;;;;;;;10.67;9.77;;;8.60;91.10;;;7.44;83.80;97948.44;5043632;28;21129;-78
2022/04/14 01:55:39;;;;;;;11.90;9.60;;;8.60;91.20;;;7.30;84.36;97947.53;5042076;28;20947;-80
2022/04/14 01:58:07;;;;;;;12.63;10.33;;;8.50;91.80;;;7.13;84.47;97925.50;5037948;28;20984;-79
2022/04/14 02:00:34;;;;;;;13.73;11.07;;;8.40;91.70;;;7.20;85.00;97959.44;5057612;28;20949;-78
2022/04/14 02:03:01;;;;;;;12.60;11.40;;;8.40;92.30;;;6.73;85.12;97889.22;5042864;28;20461;-77
2022/04/14 02:05:28;;;;;;;12.17;10.60;;;8.30;92.60;;;7.25;84.98;97966.94;5054472;28;20539;-80
2022/04/14 02:07:55;;;;;;;14.60;11.17;;;8.30;92.80;;;6.89;84.61;97915.00;5065044;28;20457;-79
2022/04/14 02:10:22;;;;;;;12.27;11.07;;;8.30;92.20;;;6.95;85.77;97969.78;5061837;28;20964;-77
2022/04/14 02:12:49;;;;;;;12.17;10.90;;;8.20;92.60;;;6.85;86.91;97970.13;5050249;28;20463;-79
2022/04/14 02:15:18;;;;;;;16.57;11.10;;;8.00;93.50;;;6.99;85.97;97964.88;5038127;28;20500;-77
2022/04/14 02:17:45;;;;;;;14.80;10.70;;;8.00;94.00;;;7.11;84.99;97967.84;5057562;28;20451;-76
2022/04/14 02:20:12;;;;;;;16.67;11.47;;;8.20;93.10;;;6.74;85.55;97927.66;5045546;28;20959;-77
2022/04/14 02:22:41;;;;;;;14.10;11.27;;;8.20;92.70;;;7.02;86.02;97962.59;5067686;28;20447;-77
2022/04/14 02:25:09;;;;;;;14.30;10.93;;;8.10;93.40;;;6.98;86.10;97968.59;5046698;28;20553;-76
2022/04/14 02:27:36;;;;;;;15.13;11.67;;;8.10;93.70;;;7.01;85.86;97974.38;5038430;28;21014;-78
2022/04/14 02:30:04;;;;;;;11.60;10.40;;;8.10;93.40;;;7.09;85.01;97968.03;5046423;28;20464;-75
2022/04/14 02:32:32;;;;;;;14.33;11.17;;;8.20;92.80;;;6.85;86.11;97967.44;5051396;28;20458;-80
2022/04/14 02:35:00;;;;;;;13.83;11.10;;;8.10;93.00;;;6.40;87.18;97921.97;5048821;28;20468;-77
2022/04/14 02:37:27;;;;;;;12.93;11.60;;;7.90;93.90;;;6.60;87.63;97965.13;5048933;28;20569;-77
2022/04/14 02:39:54;;;;;;;11.27;10.13;;;7.80;94.90;;;6.61;87.64;97972.16;5046539;28;20542;-84
2022/04/14 02:42:21;;;;;;;12.57;11.30;;;7.80;95.00;;;6.40;88.69;97951.50;5060822;28;20508;-77
2022/04/14 02:44:48;;;;;;;14.17;10.90;;;7.70;95.90;;;6.52;88.45;97968.75;5046925;28;20454;-77
2022/04/14 02:47:15;;;;;;;12.33;11.13;;;7.70;96.50;;;6.55;88.17;97975.63;5048428;28;20555;-77
2022/04/14 02:49:44;;;;;;;12.33;11.07;;;7.70;96.00;;;6.40;89.34;97975.66;5062243;28;20507;-77
2022/04/14 02:52:11;;;;;;;12.63;11.33;;;7.60;96.60;;;6.41;89.36;97971.94;5046178;28;20543;-78
2022/04/14 02:54:38;;;;;;;12.73;11.43;;;7.50;97.90;;;6.48;88.79;97972.84;5040469;28;20497;-78
2022/04/14 02:57:06;;;;;;;12.47;11.17;;;7.60;97.10;;;6.18;88.52;97913.06;5048214;28;20444;-79
2022/04/14 02:59:33;;;;;;;15.90;11.87;;;7.60;96.70;;;6.47;88.50;97971.19;5046493;28;20485;-76
2022/04/14 03:02:00;;;;;;;13.03;11.70;;;7.60;95.60;;;6.34;88.99;97969.19;5047613;28;20465;-76
2022/04/14 03:04:29;;;;;;;15.43;11.40;;;7.50;96.70;;;6.25;88.86;97948.88;5047980;28;20445;-77
2022/04/14 03:06:58;;;;;;;12.67;11.47;;;7.50;97.50;;;6.51;88.28;97971.63;5045460;28;20438;-80
2022/04/14 03:09:25;;;;;;;13.93;11.57;;;7.60;96.90;;;6.54;87.84;97971.28;5045917;28;20548;-77
2022/04/14 03:11:52;;;;;;;13.17;11.83;;;7.60;95.80;;;6.46;88.37;97971.38;5048472;28;20489;-75
2022/04/14 03:14:19;;;;;;;12.60;11.27;;;7.60;95.60;;;6.24;89.93;97971.34;5041434;28;20449;-78
2022/04/14 03:16:47;;;;;;;14.30;12.80;;;7.50;96.30;;;6.14;90.90;97981.53;5048247;28;20445;-76
2022/04/14 03:19:14;;;;;;;17.93;12.13;;;7.40;98.00;;;6.09;91.12;97990.16;5050174;28;20909;-76
2022/04/14 03:21:42;;;;;;;14.03;12.10;;;7.20;99.90;;;6.02;91.19;97983.88;5049586;28;20481;-75
2022/04/14 03:24:10;;;;;;;13.70;12.30;;;7.20;99.90;;;6.05;91.14;97983.50;5065388;28;20461;-75
2022/04/14 03:26:39;;;;;;;14.17;12.00;;;7.20;99.90;;;6.05;91.10;97973.59;5046986;28;20488;-74
2022/04/14 03:29:06;;;;;;;14.53;13.13;;;7.20;99.90;;;6.03;91.73;97970.25;5044906;28;20474;-79
2022/04/14 03:31:33;;;;;;;14.23;12.60;;;7.20;99.90;;;6.07;91.46;97981.47;5046640;28;21002;-81
2022/04/14 03:34:00;;;;;;;18.43;12.30;;;7.20;99.90;;;5.95;91.53;97968.50;5068093;28;20576;-82
2022/04/14 03:36:28;;;;;;;16.30;12.87;;;7.20;99.90;;;6.07;91.27;97981.47;5057737;28;20523;-75
2022/04/14 03:38:55;;;;;;;15.80;11.63;;;7.20;99.90;;;6.18;91.25;97980.97;5043413;28;20569;-77
2022/04/14 03:41:24;;;;;;;13.20;11.93;;;7.30;99.90;;;6.11;90.76;97990.78;5059804;28;20466;-83
2022/04/14 03:43:51;;;;;;;17.97;12.17;;;7.30;99.90;;;6.33;90.58;97990.84;5045303;28;20792;-78
2022/04/14 03:46:19;;;;;;;13.33;11.87;;;7.40;99.90;;;6.19;90.08;97989.84;5043994;28;20589;-77
2022/04/14 03:48:46;;;;;;;14.40;13.00;;;7.40;98.70;;;6.16;89.95;98009.84;5052422;28;20457;-77
2022/04/14 03:51:14;;;;;;;13.20;11.90;;;7.40;98.20;;;6.14;90.70;98003.84;5044291;28;20489;-78
2022/04/14 03:53:41;;;;;;;13.27;11.77;;;7.30;99.20;;;6.13;89.88;97999.47;5040057;28;20498;-77
2022/04/14 03:56:08;;;;;;;15.57;12.23;;;7.30;99.30;;;6.20;89.93;98000.41;5045470;28;20976;-78
2022/04/14 03:58:37;;;;;;;13.23;12.00;;;7.30;99.90;;;6.37;89.28;98003.72;5049163;28;20444;-83
2022/04/14 04:01:04;;;;;;;15.20;12.00;;;7.50;97.90;;;6.26;89.23;98004.19;5040546;28;20453;-78
2022/04/14 04:03:31;;;;;;;16.80;14.40;;;7.50;97.20;;;6.38;88.86;97993.78;5056443;28;20563;-81
2022/04/14 04:05:58;;;;;;;17.93;15.67;;;7.50;97.30;;;6.33;88.87;97996.22;5040641;28;20493;-83
2022/04/14 04:08:25;;;;;;;19.10;13.27;;;7.60;96.80;;;6.16;89.24;97968.75;5049518;28;20552;-78
2022/04/14 04:10:52;;;;;;;14.50;13.10;;;7.50;97.60;;;6.51;88.67;98003.84;5043471;28;20653;-78
2022/04/14 04:13:19;;;;;;;16.70;12.03;;;7.60;96.90;;;6.67;87.58;97992.03;5049677;28;20482;-78
2022/04/14 04:15:48;;;;;;;13.93;12.50;;;7.70;96.00;;;6.74;87.06;97992.91;5045275;28;20681;-78
2022/04/14 04:18:15;;;;;;;19.30;14.00;;;7.90;95.00;;;6.70;87.35;97999.72;5052146;28;20446;-77
2022/04/14 04:20:42;;;;;;;15.00;13.40;;;7.90;94.70;;;6.52;88.44;98003.66;5045530;28;20987;-77
2022/04/14 04:23:10;;;;;;;16.60;12.27;;;7.70;95.60;;;6.49;88.91;97997.81;5066681;28;20498;-80
2022/04/14 04:25:37;;;;;;;13.77;12.20;;;7.70;96.90;;;6.54;88.49;98002.63;5043491;28;20526;-79
2022/04/14 04:28:05;;;;;;;14.90;12.97;;;7.70;96.10;;;6.65;88.29;98004.81;5041656;28;20446;-81
2022/04/14 04:30:32;;;;;;;14.77;12.17;;;7.70;95.90;;;6.57;88.24;98002.25;5056532;28;20464;-79
2022/04/14 04:33:00;;;;;;;16.00;12.10;;;7.70;96.10;;;6.66;88.43;98011.84;5054058;28;20465;-82
2022/04/14 04:35:28;;;;;;;18.03;13.03;;;7.70;96.20;;;6.64;87.79;98020.09;5051330;28;20559;-77
2022/04/14 04:37:55;;;;;;;21.70;12.73;;;7.80;95.40;;;6.27;88.87;97980.84;5048361;28;21013;-78
2022/04/14 04:40:22;;;;;;;24.27;13.07;;;7.70;96.10;;;6.40;89.17;98028.50;5041309;28;20578;-76
2022/04/14 04:42:49;;;;;;;17.23;13.67;;;7.60;96.50;;;6.37;89.88;98016.28;5045979;28;20445;-77
2022/04/14 04:45:16;;;;;;;14.07;12.57;;;7.60;98.20;;;6.91;87.99;98022.25;5043892;28;20468;-77
2022/04/14 04:47:43;;;;;;;13.30;11.30;;;7.90;96.50;;;7.17;85.33;98008.22;5046818;28;20458;-75
2022/04/14 04:50:11;;;;;;;14.07;12.20;;;8.20;93.30;;;6.98;85.47;98011.56;5053523;28;20449;-82
2022/04/14 04:52:38;;;;;;;14.60;12.67;;;8.30;92.70;;;7.06;85.97;98020.31;5073645;28;20441;-81
2022/04/14 04:55:07;;;;;;;16.33;13.17;;;8.30;92.70;;;7.07;85.45;98019.28;5050797;28;20564;-76
2022/04/14 04:57:34;;;;;;;14.70;12.20;;;8.30;92.20;;;7.19;84.92;98029.50;5051140;28;20485;-84
2022/04/14 05:00:01;;;;;;;18.13;12.17;;;8.50;91.70;;;7.56;83.71;98022.16;5054569;28;20456;-81
2022/04/14 05:02:28;;;;;;;14.73;10.80;;;8.80;90.90;;;7.76;81.71;98042.97;5049540;28;20513;-86
2022/04/14 05:04:55;;;;;;;16.43;9.90;;;9.10;88.20;;;7.80;80.80;98031.63;5051449;28;20463;-76
2022/04/14 05:07:23;;;;;;;11.53;10.37;;;9.20;86.70;;;7.56;81.71;98032.91;5065647;28;20524;-83
2022/04/14 05:09:50;;;;;;;12.50;11.27;;;8.90;87.00;;;7.47;82.12;98037.59;5060207;28;20484;-79
2022/04/14 05:12:17;;;;;;;11.70;10.47;;;8.80;88.60;;;7.32;82.55;98043.06;5057341;28;20460;-79
2022/04/14 05:14:44;;;;;;;14.20;11.25;;;8.60;89.40;;;7.42;83.13;98052.66;5068757;28;21013;-84
2022/04/14 05:17:11;;;;;;;12.67;10.57;;;8.50;90.60;;;7.17;82.40;98045.00;5064421;28;20461;-81
2022/04/14 05:19:38;;;;;;;11.00;10.00;;;8.50;90.00;;;7.07;83.76;98062.28;5047807;28;20464;-79
2022/04/14 05:22:06;;;;;;;12.60;10.93;;;8.30;90.60;;;6.91;83.72;98057.97;5044937;28;20458;-70
2022/04/14 05:24:34;;;;;;;13.20;10.57;;;8.30;90.30;;;7.09;83.20;98065.59;5045863;28;20452;-72
2022/04/14 05:27:01;;;;;;;12.43;11.00;;;8.30;90.40;;;6.92;83.89;98066.88;5038774;28;20461;-68
2022/04/14 05:29:28;;;;;;;14.57;11.63;;;8.20;90.50;;;6.99;83.28;98070.44;5044231;28;20511;-73
2022/04/14 05:31:55;;;;;;;12.57;11.03;;;8.20;90.70;;;7.07;83.00;98070.34;5045317;28;20463;-73
2022/04/14 05:34:22;;;;;;;14.43;11.10;;;8.20;90.40;;;6.99;83.16;98075.00;5046102;28;20584;-69
2022/04/14 05:36:49;;;;;;;11.57;10.57;;;8.20;90.30;;;7.37;82.22;98070.22;5041945;28;20560;-72
2022/04/14 05:39:16;;;;;;;12.23;10.77;;;8.50;90.00;;;7.73;79.89;98075.66;5041185;28;20540;-72
2022/04/14 05:41:45;;;;;;;13.77;11.20;;;8.90;86.00;;;7.85;79.14;98081.31;5045625;28;20459;-71
2022/04/14 05:44:12;;;;;;;12.10;10.90;;;9.20;84.10;;;7.76;79.60;98077.94;5047261;28;20981;-71
2022/04/14 05:46:39;;;;;;;13.73;11.57;;;9.20;84.20;;;7.89;78.76;98069.97;5045787;28;20448;-71
2022/04/14 05:49:06;;;;;;;12.37;11.27;;;9.20;84.60;;;8.27;77.74;98089.44;5034687;28;20458;-71
2022/04/14 05:51:33;;;;;;;12.60;10.97;;;9.40;83.70;;;8.41;76.54;98088.47;5042266;28;20449;-71
2022/04/14 05:54:00;;;;;;;13.13;10.67;;;9.50;83.30;;;8.56;76.27;98082.13;5043817;28;20485;-71
2022/04/14 05:56:27;;;;;;;14.03;12.03;;;9.70;82.40;;;9.04;75.28;98095.59;5043573;28;20505;-72
2022/04/14 05:58:57;;;;;;;12.73;11.17;;;10.00;80.70;;;9.41;73.08;98091.69;5046239;28;21092;-70
2022/04/14 06:01:25;;;;;;;12.30;11.20;;;10.40;80.00;;;9.47;72.38;98090.84;5043920;28;20538;-70
2022/04/14 06:03:52;;;;;;;13.33;11.93;;;10.50;79.10;;;9.71;72.14;98099.38;5037409;28;20448;-73
2022/04/14 06:06:19;;;;;;;16.50;11.40;;;10.70;78.90;;;9.95;71.52;98097.91;5049250;28;20508;-72
2022/04/14 06:08:46;;;;;;;20.07;17.40;;;11.00;78.30;;;10.27;70.16;98091.84;5045744;28;20466;-73
2022/04/14 06:11:13;;;;;;;31.57;25.83;;;11.30;77.70;;;10.44;69.12;98086.81;5045294;28;20449;-72
2022/04/14 06:13:40;;;;;;;31.50;25.03;;;11.50;76.70;;;10.37;69.48;98083.28;5044398;28;20460;-74
2022/04/14 06:16:09;;;;;;;27.43;18.30;;;11.40;76.70;;;10.38;69.86;98087.66;5041969;28;20555;-73
2022/04/14 06:18:36;;;;;;;20.73;15.13;;;11.50;76.50;;;10.56;68.65;98084.31;5041941;28;20876;-74
2022/04/14 06:21:03;;;;;;;18.30;15.13;;;11.70;76.30;;;10.85;67.40;98088.31;5046247;28;20544;-69
2022/04/14 06:23:30;;;;;;;25.30;15.60;;;11.90;75.70;;;10.93;67.35;98086.44;5051160;28;20553;-73
2022/04/14 06:25:57;;;;;;;18.37;16.53;;;11.90;75.40;;;10.98;67.11;98079.31;5046578;28;20462;-71
2022/04/14 06:28:24;;;;;;;24.43;15.50;;;12.10;75.30;;;11.02;66.98;98085.97;5044841;28;20538;-72
2022/04/14 06:30:51;;;;;;;16.40;14.60;;;12.10;75.00;;;10.97;67.34;98091.16;5042201;28;20462;-72
2022/04/14 06:33:20;;;;;;;17.70;15.20;;;12.10;74.80;;;10.93;67.29;98081.84;5049364;28;20850;-74
2022/04/14 06:35:48;;;;;;;17.60;14.70;;;12.10;74.80;;;10.95;67.38;98087.84;5035134;28;20470;-69
2022/04/14 06:38:15;;;;;;;18.20;16.40;;;12.10;74.70;;;11.11;66.93;98091.09;5026806;28;20942;-71
2022/04/14 06:40:42;;;;;;;19.53;17.20;;;12.20;74.40;;;11.22;66.13;98074.19;5043839;28;20822;-72
2022/04/14 06:43:09;;;;;;;18.97;16.33;;;12.40;74.20;;;11.22;67.17;98078.75;5048937;28;20467;-73
2022/04/14 06:45:36;;;;;;;16.60;14.93;;;12.30;74.20;;;11.34;66.25;98077.84;5046537;28;20468;-71
2022/04/14 06:48:03;;;;;;;16.20;14.60;;;12.40;74.10;;;11.23;67.15;98077.72;5037129;28;20458;-69
2022/04/14 06:50:32;;;;;;;15.60;14.00;;;12.40;74.30;;;11.45;66.36;98067.38;5041300;28;20549;-72
2022/04/14 06:52:59;;;;;;;17.00;14.13;;;12.50;74.00;;;11.33;66.47;98070.78;5043164;28;20461;-71
2022/04/14 06:55:26;;;;;;;15.23;13.73;;;12.60;73.70;;;11.45;66.08;98083.63;5036480;28;21196;-73
2022/04/14 06:57:53;;;;;;;15.33;13.80;;;12.60;73.90;;;11.67;66.24;98080.53;5035871;28;20533;-72
2022/04/14 07:00:21;;;;;;;19.13;14.13;;;12.70;74.10;;;11.75;65.29;98083.78;5036624;28;20451;-73
2022/04/14 07:02:49;;;;;;;17.60;13.33;;;12.90;73.40;;;12.01;64.87;98089.16;5066412;28;20517;-72
2022/04/14 07:05:17;;;;;;;15.77;13.17;;;13.10;73.40;;;12.32;63.47;98087.41;5051736;28;20466;-71
2022/04/14 07:07:46;;;;;;;19.00;16.33;;;13.20;72.50;;;12.30;63.15;98084.94;5051207;28;20461;-73
2022/04/14 07:10:13;;;;;;;23.60;15.20;;;13.30;72.30;;;12.31;63.23;98089.31;5048051;28;21229;-71
2022/04/14 07:12:41;;;;;;;18.80;16.93;;;13.40;72.00;;;12.11;63.57;98094.94;5034213;28;20486;-70
2022/04/14 07:15:10;;;;;;;21.33;16.70;;;13.30;71.70;;;11.96;64.46;98086.31;5043033;28;20471;-70
2022/04/14 07:17:37;;;;;;;19.23;17.20;;;13.10;72.10;;;12.21;63.89;98085.44;5046678;28;20572;-70
2022/04/14 07:20:05;;;;;;;20.57;18.40;;;13.20;72.30;;;11.53;66.32;98090.63;5043402;28;20510;-70
2022/04/14 07:22:42;;;;;;;19.20;17.37;;;13.00;72.40;;;11.77;65.74;98087.09;5049967;28;20440;-71
2022/04/14 07:25:11;;;;;;;19.40;17.67;;;12.90;72.70;;;12.01;64.93;98091.88;5041470;28;20524;-71
2022/04/14 07:27:38;;;;;;;22.90;16.03;;;13.10;72.90;;;12.36;63.86;98094.06;5052340;28;21010;-73
2022/04/14 07:30:07;;;;;;;21.37;18.13;;;13.30;72.30;;;12.70;62.44;98085.53;5044463;28;20542;-73
2022/04/14 07:32:39;;;;;;;21.30;17.30;;;13.60;71.70;;;12.67;62.51;98073.28;5051943;28;20496;-69
2022/04/14 07:35:07;;;;;;;17.40;15.73;;;13.70;71.50;;;13.15;61.11;98082.41;5045935;28;20466;-70
2022/04/14 07:37:36;;;;;;;17.90;16.10;;;14.00;71.30;;;13.36;60.57;98085.69;5049160;28;20479;-70
2022/04/14 07:40:04;;;;;;;17.57;15.90;;;14.30;70.50;;;13.20;60.75;98095.31;5046385;28;20555;-71
2022/04/14 07:42:38;;;;;;;20.80;15.70;;;14.30;69.90;;;12.82;62.07;98086.41;5051971;28;20496;-72
2022/04/14 07:45:07;;;;;;;17.90;16.23;;;14.20;70.30;;;12.84;62.22;98106.00;5045204;28;20547;-69
2022/04/14 07:47:35;;;;;;;15.63;14.23;;;14.00;70.40;;;12.83;62.59;98101.63;5044432;28;20543;-72
2022/04/14 07:50:02;;;;;;;17.50;15.63;;;14.00;70.70;;;13.04;61.86;98103.03;5041518;28;20463;-73
2022/04/14 07:52:30;;;;;;;15.57;14.00;;;14.00;70.80;;;13.21;61.72;98110.50;5045866;28;20490;-71
2022/04/14 07:54:57;;;;;;;16.67;15.13;;;14.10;70.90;;;13.13;61.65;98108.16;5058193;28;20451;-71
2022/04/14 07:57:25;;;;;;;16.13;14.60;;;14.20;70.50;;;13.19;61.43;98112.63;5045189;28;20546;-72
2022/04/14 07:59:54;;;;;;;16.33;14.80;;;14.30;70.30;;;13.31;61.26;98107.25;5041421;28;20995;-69
2022/04/14 08:02:21;;;;;;;15.30;13.70;;;14.30;70.20;;;13.52;60.75;98105.09;5060097;28;20456;-73
2022/04/14 08:04:48;;;;;;;15.70;14.20;;;14.50;70.10;;;13.69;60.45;98110.66;5040563;28;20578;-74
2022/04/14 08:07:14;;;;;;;14.93;13.53;;;14.60;69.80;;;13.13;61.38;98108.16;5043904;28;20494;-70
2022/04/14 08:09:41;;;;;;;15.90;14.30;;;14.50;69.50;;;13.42;61.22;98121.91;5054909;28;20555;-70
2022/04/14 08:12:10;;;;;;;14.70;12.80;;;14.40;69.80;;;13.41;61.05;98118.38;5036591;28;20460;-70
2022/04/14 08:14:37;;;;;;;18.30;13.23;;;14.50;69.70;;;13.58;61.09;98115.88;5045762;28;20496;-71
2022/04/14 08:17:06;;;;;;;15.53;13.83;;;14.60;69.90;;;13.71;60.29;98122.13;5040204;28;20815;-70
2022/04/14 08:19:34;;;;;;;15.60;13.90;;;14.70;69.60;;;13.95;60.02;98124.88;5041272;28;20491;-71
2022/04/14 08:22:01;;;;;;;14.10;12.70;;;14.90;69.50;;;13.90;60.38;98136.44;5040963;28;20449;-70
2022/04/14 08:24:28;;;;;;;14.80;13.30;;;14.90;69.30;;;13.51;61.04;98131.41;5043621;28;20459;-70
2022/04/14 08:26:55;;;;;;;15.03;12.77;;;14.80;69.20;;;13.74;60.94;98130.63;5040583;28;20489;-71
2022/04/14 08:29:22;;;;;;;14.60;13.13;;;14.70;69.60;;;14.21;59.87;98133.66;5044010;28;20466;-68
2022/04/14 08:31:50;;;;;;;15.00;13.60;;;15.00;69.40;;;14.75;58.41;98132.66;5056546;28;20581;-74
2022/04/14 08:34:18;;;;;;;18.33;13.07;;;15.40;68.90;;;15.01;57.26;98132.13;5041338;28;20956;-75
2022/04/14 08:36:45;;;;;;;14.03;12.63;;;15.70;68.20;;;15.12;56.82;98124.97;5047765;28;20535;-76
2022/04/14 08:39:12;;;;;;;13.70;12.50;;;15.90;67.90;;;15.51;55.74;98127.03;5046564;28;22347;-72
2022/04/14 08:41:45;;;;;;;14.00;11.70;;;16.30;67.30;;;15.83;54.29;98122.97;5036310;28;20468;-74
2022/04/14 08:44:14;;;;;;;12.40;11.30;;;16.60;66.10;;;15.63;54.34;98131.59;5042171;28;20501;-72
2022/04/14 08:46:42;;;;;;;12.83;11.30;;;16.50;65.30;;;15.86;54.45;98120.56;5042754;28;20467;-73
2022/04/14 08:49:11;;;;;;;14.43;11.90;;;16.80;65.50;;;16.18;52.90;98121.09;5041902;28;20457;-72
2022/04/14 08:51:41;;;;;;;16.10;11.90;;;17.00;64.80;;;16.01;53.71;98116.47;5037609;28;20464;-73
2022/04/14 08:54:09;;;;;;;15.63;11.90;;;17.10;64.20;;;16.10;53.39;98114.97;5041950;28;20460;-71
2022/04/14 08:56:37;;;;;;;12.13;11.13;;;17.20;63.80;;;16.36;52.04;98111.78;5042857;28;20490;-72
2022/04/14 08:59:05;;;;;;;12.07;10.90;;;17.30;63.10;;;16.42;51.90;98114.34;5041366;28;20458;-72
2022/04/14 09:01:34;;;;;;;13.30;12.00;;;17.40;62.50;;;16.58;51.60;98120.00;5043369;28;20476;-72
2022/04/14 09:04:01;;;;;;;12.70;11.40;;;17.50;62.10;;;16.34;51.48;98122.97;5044129;28;20451;-70
2022/04/14 09:06:31;;;;;;;12.90;11.57;;;17.40;61.70;;;16.61;51.30;98119.50;5050146;28;20457;-70
2022/04/14 09:09:01;;;;;;;11.07;10.07;;;17.50;61.60;;;16.57;49.54;98118.34;5046121;28;20472;-71
2022/04/14 09:11:30;;;;;;;10.40;9.30;;;17.60;60.30;;;16.52;50.58;98130.00;5041380;28;20554;-71
2022/04/14 09:14:00;;;;;;;11.10;10.00;;;17.50;60.40;;;16.47;50.48;98123.69;5044400;28;21035;-71
2022/04/14 09:16:30;;;;;;;11.77;10.53;;;17.40;60.00;;;16.76;49.85;98131.72;5050640;28;20995;-77
2022/04/14 09:19:00;;;;;;;10.77;9.87;;;17.60;59.80;;;16.70;49.71;98128.91;5044962;28;20453;-70
2022/04/14 09:21:27;;;;;;;11.10;9.87;;;17.70;59.50;;;16.63;49.39;98125.53;5043050;28;20615;-73
2022/04/14 09:23:54;;;;;;;11.17;10.10;;;17.60;59.00;;;16.60;49.09;98122.47;5041534;28;20555;-69
2022/04/14 09:26:24;;;;;;;11.77;10.47;;;17.60;58.60;;;16.48;49.64;98126.13;5027244;28;20464;-70
2022/04/14 09:29:05;;;;;;;11.87;10.67;;;17.50;58.70;;;16.88;48.77;98126.13;5016895;28;20447;-74
2022/04/14 09:31:48;;;;;;;11.43;10.33;;;17.70;58.50;;;16.99;48.63;98120.56;5039753;28;20446;-75
2022/04/14 09:34:18;;;;;;;9.80;8.87;;;17.80;58.50;;;16.83;48.65;98121.41;5055493;28;20559;-71
2022/04/14 09:37:06;;;;;;;10.67;9.57;;;17.80;58.10;;;16.75;49.77;98130.03;5042073;28;20976;-74
2022/04/14 09:39:51;;;;;;;13.00;9.73;;;17.80;58.50;;;16.67;49.71;98123.94;5037494;28;20469;-74
2022/04/14 09:42:22;;;;;;;12.47;9.10;;;17.70;58.60;;;16.82;50.27;98125.22;5039235;28;20458;-71
2022/04/14 09:44:50;;;;;;;11.77;9.77;;;17.70;59.00;;;16.78;49.94;98124.91;5041138;28;20485;-71
2022/04/14 09:47:39;;;;;;;11.57;9.50;;;17.80;58.80;;;16.92;49.21;98125.38;5042298;28;20452;-73
2022/04/14 09:50:24;;;;;;;9.77;8.80;;;17.80;58.50;;;16.97;49.83;98139.06;5039534;28;20461;-72
2022/04/14 09:53:02;;;;;;;10.77;9.70;;;17.80;58.90;;;16.64;50.23;98126.34;5045847;28;20471;-73
2022/04/14 09:55:29;;;;;;;9.73;8.93;;;17.70;58.60;;;16.72;50.30;98128.66;5039090;28;20446;-73
2022/04/14 09:58:10;;;;;;;9.83;8.67;;;17.70;58.80;;;16.85;49.94;98119.25;5042774;28;20557;-72
2022/04/14 10:00:40;;;;;;;10.10;9.10;;;17.70;58.70;;;16.91;49.95;98123.72;5043600;28;20472;-72
2022/04/14 10:03:16;;;;;;;9.20;8.30;;;17.70;58.80;;;16.93;49.84;98132.47;5050081;28;20549;-71
2022/04/14 10:05:44;;;;;;;11.53;10.37;;;17.80;58.80;;;16.99;49.37;98127.94;5044977;28;20448;-70
2022/04/14 10:08:13;;;;;;;11.30;9.50;;;17.80;58.40;;;16.93;49.74;98121.56;5031519;28;20480;-71
2022/04/14 10:10:43;;;;;;;13.80;10.30;;;17.90;58.50;;;16.98;49.98;98118.03;5046805;28;20449;-70
2022/04/14 10:13:13;;;;;;;10.37;9.37;;;18.00;58.40;;;17.16;48.98;98119.63;5045035;28;21036;-69
2022/04/14 10:15:42;;;;;;;11.27;9.97;;;18.10;58.30;;;17.25;49.28;98118.13;5045180;28;20999;-72
2022/04/14 10:18:12;;;;;;;10.40;9.13;;;18.10;58.10;;;17.35;48.94;98127.47;5039347;28;21143;-69
2022/04/14 10:20:42;;;;;;;10.60;8.80;;;18.20;58.10;;;17.47;48.84;98114.50;5043153;28;20540;-72